Time;durP1;ratioP1;P1;durP2;ratioP2;P2;SDS_P1;SDS_P2;PMS_P1;PMS_P2;Temp;Humidity;BMP_temperature;BMP_pressure;BME280_temperature;BME280_humidity;BME280_pressure;Samples;Min_cycle;Max_cycle;Signal;HPM_P1;HPM_P2
2022/03/22 00:02:12;;;;;;;7.40;1.90;;;23.40;99.90;;;;;;5014279;28;20195;-80
2022/03/22 00:04:42;;;;;;;8.43;2.40;;;23.40;99.90;;;;;;5009538;28;20192;-80
2022/03/22 00:07:13;;;;;;;7.00;1.70;;;23.60;99.90;;;;;;5010732;28;21840;-80
2022/03/22 00:09:46;;;;;;;7.40;2.03;;;23.70;99.90;;;;;;5010772;28;20277;-79
2022/03/22 00:12:16;;;;;;;6.47;2.03;;;23.80;99.90;;;;;;5009380;28;20191;-79
2022/03/22 00:14:47;;;;;;;5.43;1.73;;;23.80;99.90;;;;;;5012467;28;20241;-80
2022/03/22 00:17:18;;;;;;;7.28;1.95;;;23.80;99.90;;;;;;5010709;28;20595;-81
2022/03/22 00:19:48;;;;;;;6.10;1.70;;;23.90;99.90;;;;;;5014127;28;20190;-83
2022/03/22 00:22:20;;;;;;;6.78;1.90;;;24.00;99.90;;;;;;5011903;28;20187;-87
2022/03/22 00:24:53;;;;;;;6.03;1.90;;;24.10;99.90;;;;;;5005961;28;20195;-83
2022/03/22 00:27:25;;;;;;;5.50;1.80;;;24.10;99.90;;;;;;5013461;28;20267;-81
2022/03/22 00:29:55;;;;;;;3.58;1.70;;;24.10;99.90;;;;;;5009930;28;20203;-82
2022/03/22 00:32:27;;;;;;;7.60;2.00;;;24.10;99.90;;;;;;5007755;28;20199;-84
2022/03/22 00:34:58;;;;;;;5.53;1.90;;;24.20;99.90;;;;;;5012804;28;20199;-82
2022/03/22 00:37:29;;;;;;;5.60;1.80;;;24.50;99.90;;;;;;5009325;28;20203;-85
2022/03/22 00:40:02;;;;;;;5.28;1.70;;;24.70;99.90;;;;;;5010258;28;20281;-81
2022/03/22 00:42:33;;;;;;;5.15;1.90;;;24.70;99.90;;;;;;5011990;28;20222;-80
2022/03/22 00:45:04;;;;;;;4.90;1.90;;;24.70;99.90;;;;;;5008952;28;20195;-79
2022/03/22 00:47:34;;;;;;;9.38;2.42;;;24.80;99.90;;;;;;5011535;28;20194;-79
2022/03/22 00:50:06;;;;;;;4.35;1.70;;;24.90;99.90;;;;;;5010503;28;20202;-79
2022/03/22 00:52:37;;;;;;;7.78;4.18;;;24.90;99.90;;;;;;5012644;28;20191;-78
2022/03/22 00:55:11;;;;;;;17.08;9.07;;;25.10;99.90;;;;;;5013176;28;20213;-79
2022/03/22 00:57:43;;;;;;;48.78;34.42;;;25.10;99.90;;;;;;5010834;28;20204;-80
2022/03/22 01:00:17;;;;;;;16.02;9.90;;;25.20;99.90;;;;;;5013355;28;20199;-77
2022/03/22 01:02:49;;;;;;;5.00;2.17;;;25.20;99.90;;;;;;5013047;28;20255;-80
2022/03/22 01:05:21;;;;;;;6.13;2.53;;;25.30;99.90;;;;;;5012191;28;20191;-79
2022/03/22 01:07:54;;;;;;;6.40;2.17;;;25.40;99.90;;;;;;5012405;28;20203;-77
2022/03/22 01:10:28;;;;;;;7.38;2.13;;;25.60;99.90;;;;;;5012630;28;20195;-76
2022/03/22 01:12:58;;;;;;;6.85;2.10;;;25.70;99.90;;;;;;5011830;28;20682;-77
2022/03/22 01:15:33;;;;;;;50.90;21.58;;;25.80;99.90;;;;;;5009965;28;20728;-78
2022/03/22 01:18:06;;;;;;;5.97;2.50;;;25.90;99.90;;;;;;5005802;28;20534;-80
2022/03/22 01:20:37;;;;;;;4.20;2.60;;;26.00;99.90;;;;;;5004376;28;20283;-78
2022/03/22 01:23:10;;;;;;;5.15;2.60;;;26.10;99.90;;;;;;5006645;28;20254;-79
2022/03/22 01:25:44;;;;;;;6.88;3.20;;;26.20;99.90;;;;;;5012488;28;20188;-78
2022/03/22 01:28:16;;;;;;;4.13;2.00;;;26.30;99.90;;;;;;5014416;28;20202;-78
2022/03/22 01:30:46;;;;;;;4.40;1.98;;;26.30;99.90;;;;;;5012536;28;20191;-78
2022/03/22 01:33:17;;;;;;;3.90;2.00;;;26.40;99.90;;;;;;5011807;28;20261;-79
2022/03/22 01:35:47;;;;;;;4.28;1.83;;;26.40;99.90;;;;;;5013610;28;20244;-77
2022/03/22 01:38:18;;;;;;;4.47;1.80;;;26.40;99.90;;;;;;5009630;28;20274;-79
2022/03/22 01:40:51;;;;;;;7.18;2.00;;;26.50;99.90;;;;;;5008336;28;20194;-77
2022/03/22 01:43:21;;;;;;;4.95;1.90;;;26.50;99.90;;;;;;5010280;28;20218;-79
2022/03/22 01:45:53;;;;;;;4.15;1.80;;;26.60;99.90;;;;;;5000925;28;20234;-80
2022/03/22 01:48:24;;;;;;;4.60;2.05;;;26.80;99.90;;;;;;5005889;28;20716;-85
2022/03/22 01:50:56;;;;;;;5.18;1.90;;;26.70;99.90;;;;;;5006798;28;20249;-81
2022/03/22 01:53:27;;;;;;;8.02;2.10;;;26.70;99.90;;;;;;5004633;28;20273;-84
2022/03/22 01:56:00;;;;;;;7.82;1.95;;;26.80;99.90;;;;;;5003933;28;20195;-81
2022/03/22 01:58:31;;;;;;;5.68;1.92;;;26.90;99.90;;;;;;5001047;28;20207;-82
2022/03/22 02:06:35;;;;;;;4.55;1.73;;;26.90;99.90;;;;;;4990455;28;20198;-86
2022/03/22 02:09:08;;;;;;;3.72;1.70;;;27.00;99.90;;;;;;5009686;28;20202;-85
2022/03/22 02:11:40;;;;;;;4.32;1.73;;;27.10;99.90;;;;;;5011949;28;20249;-82
2022/03/22 02:14:11;;;;;;;4.28;1.90;;;27.20;99.90;;;;;;5011571;28;20219;-84
2022/03/22 02:16:42;;;;;;;5.65;1.80;;;27.30;99.90;;;;;;5011936;28;20604;-81
2022/03/22 02:19:15;;;;;;;5.13;1.67;;;27.30;99.90;;;;;;5011553;28;20241;-83
2022/03/22 02:21:47;;;;;;;6.75;2.00;;;27.30;99.90;;;;;;5011838;28;20245;-80
2022/03/22 02:24:19;;;;;;;5.95;2.00;;;27.30;99.90;;;;;;5011421;28;20206;-84
2022/03/22 02:26:50;;;;;;;9.48;2.10;;;27.30;99.90;;;;;;5009761;28;20612;-82
2022/03/22 02:29:20;;;;;;;7.70;1.90;;;27.40;99.90;;;;;;5011396;28;20210;-83
2022/03/22 02:31:51;;;;;;;5.45;1.60;;;27.40;99.90;;;;;;5011839;28;20191;-82
2022/03/22 02:34:22;;;;;;;8.25;2.10;;;27.50;99.90;;;;;;5014831;28;20269;-83
2022/03/22 02:36:52;;;;;;;11.20;2.22;;;27.60;99.90;;;;;;5015953;28;20187;-84
2022/03/22 02:39:25;;;;;;;6.28;2.00;;;27.60;99.90;;;;;;5015426;28;20191;-81
2022/03/22 02:41:56;;;;;;;7.97;1.95;;;27.60;99.90;;;;;;5012514;28;20206;-81
2022/03/22 02:44:26;;;;;;;7.10;1.80;;;27.50;99.90;;;;;;5013924;28;20286;-85
2022/03/22 02:46:57;;;;;;;8.52;1.83;;;27.60;99.90;;;;;;5013140;28;20246;-83
2022/03/22 02:49:30;;;;;;;11.98;1.98;;;27.40;99.90;;;;;;5014718;28;20206;-82
2022/03/22 02:52:00;;;;;;;6.20;1.90;;;27.50;99.90;;;;;;5007137;28;20229;-81
2022/03/22 02:54:33;;;;;;;9.73;1.77;;;27.40;99.90;;;;;;5013790;28;20211;-85
2022/03/22 02:57:04;;;;;;;5.68;1.80;;;27.50;99.90;;;;;;5013232;28;20264;-83
2022/03/22 02:59:34;;;;;;;6.72;2.10;;;27.50;99.90;;;;;;5014123;28;20557;-84
2022/03/22 03:02:05;;;;;;;13.40;2.10;;;27.50;99.90;;;;;;5013198;28;20234;-80
2022/03/22 03:04:35;;;;;;;5.80;1.58;;;27.50;99.90;;;;;;5013461;28;20199;-81
2022/03/22 03:07:06;;;;;;;6.68;1.80;;;27.40;99.90;;;;;;5014360;28;20257;-79
2022/03/22 03:09:39;;;;;;;12.88;2.03;;;27.50;99.90;;;;;;5013094;28;20194;-81
2022/03/22 03:12:11;;;;;;;8.18;1.67;;;27.50;99.90;;;;;;5015430;28;20187;-81
2022/03/22 03:14:43;;;;;;;10.15;1.75;;;27.50;99.90;;;;;;5015228;28;20573;-83
2022/03/22 03:17:15;;;;;;;8.88;1.73;;;27.40;99.90;;;;;;5009892;28;20202;-80
2022/03/22 03:19:46;;;;;;;6.70;2.03;;;27.40;99.90;;;;;;5012498;28;20191;-78
2022/03/22 03:22:17;;;;;;;9.85;1.75;;;27.40;99.90;;;;;;5015456;28;20198;-79
2022/03/22 03:24:50;;;;;;;7.15;1.83;;;27.50;99.90;;;;;;5011643;28;20651;-81
2022/03/22 03:27:21;;;;;;;11.20;1.60;;;27.50;99.90;;;;;;5012736;28;20187;-79
2022/03/22 03:29:52;;;;;;;7.38;1.80;;;27.50;99.90;;;;;;5013899;28;20198;-81
2022/03/22 03:32:22;;;;;;;9.48;1.88;;;27.60;99.90;;;;;;5018658;28;20198;-79
2022/03/22 03:34:53;;;;;;;5.80;1.70;;;27.50;99.90;;;;;;5014921;28;20231;-79
2022/03/22 03:37:25;;;;;;;8.70;1.77;;;27.50;99.90;;;;;;5008444;28;20242;-78
2022/03/22 03:39:57;;;;;;;6.30;1.58;;;27.40;99.90;;;;;;5013463;28;20195;-80
2022/03/22 03:42:28;;;;;;;3.85;1.45;;;27.30;99.90;;;;;;5013858;28;20277;-82
2022/03/22 03:47:45;;;;;;;8.70;1.65;;;27.20;99.90;;;;;;5015147;28;20252;-81
2022/03/22 03:50:16;;;;;;;5.60;1.83;;;27.20;99.90;;;;;;5015166;28;20183;-81
2022/03/22 03:52:46;;;;;;;8.60;1.88;;;27.20;99.90;;;;;;5017124;28;20187;-82
2022/03/22 03:55:19;;;;;;;6.68;1.75;;;27.20;99.90;;;;;;5012403;28;20230;-80
2022/03/22 03:57:50;;;;;;;6.80;1.63;;;27.20;99.90;;;;;;5014370;28;20183;-79
2022/03/22 04:00:23;;;;;;;6.75;1.70;;;27.20;99.90;;;;;;5019068;28;20244;-78
2022/03/22 04:02:54;;;;;;;6.70;1.70;;;27.20;99.90;;;;;;5011966;28;20646;-80
2022/03/22 04:05:25;;;;;;;7.68;1.83;;;27.20;99.90;;;;;;5012320;28;20222;-77
2022/03/22 04:07:55;;;;;;;8.32;1.80;;;27.20;99.90;;;;;;5006576;28;20923;-76
2022/03/22 04:10:28;;;;;;;9.75;1.90;;;27.20;99.90;;;;;;5006315;28;20247;-84
2022/03/22 04:12:58;;;;;;;7.07;1.75;;;27.20;99.90;;;;;;5011641;28;20183;-78
2022/03/22 04:15:31;;;;;;;9.23;1.80;;;27.30;99.90;;;;;;5009315;28;20214;-80
2022/03/22 04:18:01;;;;;;;11.48;2.00;;;27.30;99.90;;;;;;5008310;28;20187;-80
2022/03/22 04:20:32;;;;;;;6.07;1.83;;;27.40;99.90;;;;;;5012191;28;20274;-80
2022/03/22 04:23:03;;;;;;;11.20;2.30;;;27.30;99.90;;;;;;5015315;28;20214;-82
2022/03/22 04:25:35;;;;;;;7.93;1.80;;;27.30;99.90;;;;;;5009359;28;20573;-80
2022/03/22 04:33:39;;;;;;;7.13;1.67;;;27.40;99.90;;;;;;5006531;28;20190;-81
2022/03/22 04:36:12;;;;;;;6.63;1.60;;;27.40;99.90;;;;;;5012483;28;20195;-78
2022/03/22 04:38:42;;;;;;;8.15;1.90;;;27.40;99.90;;;;;;5005101;28;20680;-79
2022/03/22 04:41:15;;;;;;;7.07;1.60;;;27.40;99.90;;;;;;5013251;28;20187;-77
2022/03/22 04:43:46;;;;;;;7.55;1.60;;;27.40;99.90;;;;;;5009221;28;20650;-80
2022/03/22 04:46:18;;;;;;;6.72;1.88;;;27.30;99.90;;;;;;5010306;28;20229;-77
2022/03/22 04:48:49;;;;;;;11.00;2.10;;;27.30;99.90;;;;;;5012668;28;20195;-78
2022/03/22 04:56:55;;;;;;;8.68;2.30;;;27.40;99.90;;;;;;5010758;28;20769;-81
2022/03/22 04:59:25;;;;;;;5.90;1.80;;;27.30;99.90;;;;;;5009497;28;20203;-82
2022/03/22 05:01:57;;;;;;;9.10;1.92;;;27.30;99.90;;;;;;5008163;28;20191;-80
2022/03/22 05:04:28;;;;;;;7.20;1.77;;;27.40;99.90;;;;;;5007866;28;20251;-81
2022/03/22 05:06:58;;;;;;;8.48;2.13;;;27.40;99.90;;;;;;5012715;28;20322;-81
2022/03/22 05:09:30;;;;;;;4.53;1.70;;;27.50;99.90;;;;;;5009622;28;20202;-79
2022/03/22 05:12:03;;;;;;;8.63;2.20;;;27.40;99.90;;;;;;5011998;28;20191;-81
2022/03/22 05:14:35;;;;;;;6.47;1.90;;;27.40;99.90;;;;;;4999035;28;20203;-81
2022/03/22 05:17:06;;;;;;;7.53;1.90;;;27.40;99.90;;;;;;5011020;28;20230;-80
2022/03/22 05:19:36;;;;;;;8.13;2.15;;;27.30;99.90;;;;;;5004545;28;20747;-81
2022/03/22 05:22:07;;;;;;;11.43;2.42;;;27.30;99.90;;;;;;5011458;28;20195;-80
2022/03/22 05:24:38;;;;;;;7.57;2.10;;;27.20;99.90;;;;;;5013612;28;20194;-79
2022/03/22 05:27:10;;;;;;;7.15;2.47;;;27.20;99.90;;;;;;5013945;28;20653;-84
2022/03/22 05:29:41;;;;;;;7.00;2.17;;;27.10;99.90;;;;;;5014047;28;20246;-81
2022/03/22 05:32:12;;;;;;;7.00;2.20;;;27.10;99.90;;;;;;5012435;28;20195;-80
2022/03/22 05:34:43;;;;;;;7.13;2.00;;;27.10;99.90;;;;;;5011972;28;20219;-81
2022/03/22 05:37:13;;;;;;;8.68;2.20;;;27.10;99.90;;;;;;5014059;28;20195;-80
2022/03/22 05:39:44;;;;;;;6.60;2.42;;;27.10;99.90;;;;;;5005719;28;20710;-80
2022/03/22 05:42:17;;;;;;;9.43;2.13;;;27.20;99.90;;;;;;5008944;28;20252;-82
2022/03/22 05:44:48;;;;;;;6.15;1.90;;;27.10;99.90;;;;;;5003700;28;20195;-78
2022/03/22 05:47:21;;;;;;;7.65;2.45;;;27.00;99.90;;;;;;5004696;28;20244;-80
2022/03/22 05:49:51;;;;;;;9.55;2.30;;;26.90;99.90;;;;;;5005005;28;20522;-81
2022/03/22 05:52:22;;;;;;;4.13;1.88;;;26.80;99.90;;;;;;5006406;28;20207;-79
2022/03/22 05:54:53;;;;;;;4.18;2.28;;;26.80;99.90;;;;;;5006119;28;20321;-78
2022/03/22 05:57:25;;;;;;;9.57;2.33;;;26.70;99.90;;;;;;5012780;28;20195;-80
2022/03/22 05:59:56;;;;;;;8.27;2.15;;;26.70;99.90;;;;;;5009162;28;20198;-79
2022/03/22 06:02:26;;;;;;;5.78;2.40;;;26.60;99.90;;;;;;5004708;28;20663;-82
2022/03/22 06:04:57;;;;;;;6.68;2.28;;;26.60;99.90;;;;;;5006290;28;20191;-81
2022/03/22 06:07:28;;;;;;;7.03;2.00;;;26.60;99.90;;;;;;5013069;28;20704;-80
2022/03/22 06:09:59;;;;;;;9.55;2.60;;;26.60;99.90;;;;;;5013316;28;20202;-81
2022/03/22 06:12:39;;;;;;;7.97;2.13;;;26.50;99.90;;;;;;5008766;28;20197;-82
2022/03/22 06:15:18;;;;;;;7.65;2.40;;;26.60;99.90;;;;;;5010065;28;20215;-82
2022/03/22 06:17:49;;;;;;;6.15;2.30;;;26.60;99.90;;;;;;5004676;28;20257;-81
2022/03/22 06:20:23;;;;;;;5.90;2.33;;;26.60;99.90;;;;;;5012687;28;20635;-81
2022/03/22 06:22:54;;;;;;;7.88;2.45;;;26.50;99.90;;;;;;5008883;28;20191;-81
2022/03/22 06:25:25;;;;;;;5.72;2.47;;;26.50;99.90;;;;;;5004322;28;20625;-80
2022/03/22 06:27:58;;;;;;;6.72;2.22;;;26.50;99.90;;;;;;5003853;28;20209;-81
2022/03/22 06:30:30;;;;;;;9.57;2.42;;;26.50;99.90;;;;;;5012831;28;20187;-82
2022/03/22 06:33:01;;;;;;;6.38;2.60;;;26.50;99.90;;;;;;5003930;28;20725;-81
2022/03/22 06:35:34;;;;;;;5.65;2.20;;;26.40;99.90;;;;;;5014305;28;20215;-79
2022/03/22 06:38:05;;;;;;;8.00;2.33;;;26.40;99.90;;;;;;5004448;28;20237;-80
2022/03/22 06:40:38;;;;;;;5.88;2.00;;;26.30;99.90;;;;;;5007890;28;20195;-80
2022/03/22 06:43:14;;;;;;;7.18;2.42;;;26.30;99.90;;;;;;5010779;28;20571;-81
2022/03/22 06:45:46;;;;;;;5.03;2.47;;;26.20;99.90;;;;;;5004649;28;20226;-81
2022/03/22 06:48:17;;;;;;;6.07;2.35;;;26.20;99.90;;;;;;5009615;28;20193;-80
2022/03/22 06:50:49;;;;;;;9.25;2.20;;;26.10;99.90;;;;;;5004624;28;20274;-80
2022/03/22 06:53:20;;;;;;;9.18;2.40;;;26.00;99.90;;;;;;5008904;28;20188;-79
2022/03/22 06:55:52;;;;;;;7.07;2.22;;;25.90;99.90;;;;;;5007546;28;20222;-82
2022/03/22 06:58:27;;;;;;;9.18;2.53;;;25.90;99.90;;;;;;5013204;28;20206;-80
2022/03/22 07:00:57;;;;;;;6.70;2.10;;;25.80;99.90;;;;;;5007619;28;20198;-80
2022/03/22 07:03:28;;;;;;;8.18;2.58;;;25.70;99.90;;;;;;5024419;28;20187;-81
2022/03/22 07:05:59;;;;;;;8.52;2.28;;;25.60;99.90;;;;;;5019562;28;20278;-79
2022/03/22 07:08:29;;;;;;;6.30;2.33;;;25.60;99.90;;;;;;5004656;28;20720;-78
2022/03/22 07:13:49;;;;;;;6.80;2.10;;;25.50;99.90;;;;;;5010998;28;20245;-82
2022/03/22 07:16:21;;;;;;;7.30;2.55;;;25.50;99.90;;;;;;5003193;28;20207;-81
2022/03/22 07:18:51;;;;;;;8.48;2.40;;;25.40;99.90;;;;;;5014429;28;20208;-79
2022/03/22 07:21:22;;;;;;;12.52;2.40;;;25.40;99.90;;;;;;5012771;28;20195;-78
2022/03/22 07:23:52;;;;;;;7.65;2.05;;;25.30;99.90;;;;;;5015124;28;20195;-80
2022/03/22 07:26:23;;;;;;;7.32;2.30;;;25.30;99.90;;;;;;5017839;28;20188;-79
2022/03/22 07:28:55;;;;;;;7.88;2.42;;;25.20;99.90;;;;;;5013443;28;20195;-80
2022/03/22 07:31:26;;;;;;;7.85;2.20;;;25.20;99.90;;;;;;5019612;28;20253;-82
2022/03/22 07:33:57;;;;;;;7.07;2.25;;;25.10;99.90;;;;;;5015018;28;20183;-81
2022/03/22 07:36:27;;;;;;;6.30;2.20;;;25.10;99.90;;;;;;5014127;28;20219;-80
2022/03/22 07:38:58;;;;;;;8.77;2.30;;;25.00;99.90;;;;;;5015198;28;20195;-81
2022/03/22 07:41:29;;;;;;;11.80;2.78;;;25.00;99.90;;;;;;5009572;28;20771;-80
2022/03/22 07:44:02;;;;;;;8.00;2.38;;;24.90;99.90;;;;;;5014875;28;20234;-80
2022/03/22 07:46:32;;;;;;;8.15;2.28;;;24.90;99.90;;;;;;5013897;28;20289;-81
2022/03/22 07:54:33;;;;;;;9.82;2.50;;;24.70;99.90;;;;;;5015647;28;20229;-81
2022/03/22 07:57:04;;;;;;;9.43;2.80;;;24.70;99.90;;;;;;5013924;28;20191;-80
2022/03/22 07:59:37;;;;;;;10.55;2.65;;;24.60;99.90;;;;;;5007029;28;20614;-80
2022/03/22 08:02:07;;;;;;;11.98;2.60;;;24.60;99.90;;;;;;5017991;28;20245;-80
2022/03/22 08:04:38;;;;;;;6.40;2.42;;;24.50;99.90;;;;;;5017233;28;20183;-80
2022/03/22 08:07:09;;;;;;;9.18;2.58;;;24.50;99.90;;;;;;5017648;28;20645;-79
2022/03/22 08:09:40;;;;;;;10.93;2.78;;;24.40;99.90;;;;;;5019182;28;20270;-80
2022/03/22 08:12:11;;;;;;;7.97;2.40;;;24.40;99.90;;;;;;5018195;28;20230;-79
2022/03/22 08:14:44;;;;;;;9.55;2.40;;;24.30;99.90;;;;;;5014366;28;20187;-78
2022/03/22 08:17:14;;;;;;;11.85;2.70;;;24.30;99.90;;;;;;5019856;28;20186;-81
2022/03/22 08:19:45;;;;;;;12.65;2.90;;;24.20;99.90;;;;;;5021615;28;20187;-79
2022/03/22 08:22:16;;;;;;;9.57;2.40;;;24.20;99.90;;;;;;5018243;28;20187;-79
2022/03/22 08:24:46;;;;;;;7.40;2.42;;;24.10;99.90;;;;;;5018848;28;20565;-80
2022/03/22 08:27:17;;;;;;;11.38;2.45;;;24.10;99.90;;;;;;5009800;28;20203;-80
2022/03/22 08:29:51;;;;;;;15.55;2.90;;;24.00;99.90;;;;;;5003209;28;20239;-80
2022/03/22 08:32:21;;;;;;;9.52;2.42;;;24.00;99.90;;;;;;5015271;28;20188;-78
2022/03/22 08:34:52;;;;;;;10.98;2.60;;;24.00;99.90;;;;;;5017054;28;20198;-78
2022/03/22 08:37:23;;;;;;;12.35;2.90;;;23.90;99.90;;;;;;5014849;28;20265;-80
2022/03/22 08:39:54;;;;;;;9.35;3.00;;;23.90;99.90;;;;;;5015939;28;20646;-77
2022/03/22 08:42:25;;;;;;;10.48;3.95;;;23.90;99.90;;;;;;5012872;28;20222;-79
2022/03/22 08:44:58;;;;;;;15.73;3.90;;;23.80;99.90;;;;;;5021396;28;20187;-79
2022/03/22 08:47:29;;;;;;;17.02;3.63;;;23.80;99.90;;;;;;5012723;28;20191;-78
2022/03/22 08:50:00;;;;;;;12.10;4.03;;;23.80;99.90;;;;;;5012581;28;20552;-78
2022/03/22 08:52:30;;;;;;;13.10;3.40;;;23.80;99.90;;;;;;5014437;28;20254;-78
2022/03/22 08:55:01;;;;;;;11.25;2.88;;;23.70;99.90;;;;;;5011343;28;20191;-77
2022/03/22 08:57:32;;;;;;;8.75;3.05;;;23.70;99.90;;;;;;5017373;28;20643;-80
2022/03/22 09:00:09;;;;;;;8.75;2.85;;;23.60;99.90;;;;;;5014128;28;20190;-78
2022/03/22 09:02:40;;;;;;;10.30;2.97;;;23.60;99.90;;;;;;5011404;28;20234;-79
2022/03/22 09:08:00;;;;;;;13.20;3.05;;;23.60;99.90;;;;;;5004842;28;20281;-78
2022/03/22 09:10:31;;;;;;;10.70;2.90;;;23.60;99.90;;;;;;5010904;28;20693;-78
2022/03/22 09:13:02;;;;;;;8.27;2.50;;;23.60;99.90;;;;;;5006510;28;20195;-78
2022/03/22 09:15:37;;;;;;;10.35;2.45;;;23.50;99.90;;;;;;5005444;28;20222;-79
2022/03/22 09:18:14;;;;;;;8.75;2.78;;;23.50;99.90;;;;;;5014194;28;20240;-79
2022/03/22 09:20:46;;;;;;;10.73;2.60;;;23.50;99.90;;;;;;5013496;28;20898;-79
2022/03/22 09:23:18;;;;;;;9.07;2.78;;;23.50;99.90;;;;;;5019662;28;20646;-79
2022/03/22 09:25:54;;;;;;;8.38;2.70;;;23.40;99.90;;;;;;5009692;28;20187;-80
2022/03/22 09:28:24;;;;;;;9.35;2.88;;;23.40;99.90;;;;;;5007741;28;20201;-78
2022/03/22 09:30:57;;;;;;;11.65;2.80;;;23.40;99.90;;;;;;5013447;28;20642;-78
2022/03/22 09:33:27;;;;;;;6.28;2.55;;;23.40;99.90;;;;;;5020688;28;20187;-78
2022/03/22 09:36:01;;;;;;;8.35;2.72;;;23.40;99.90;;;;;;5008910;28;20219;-79
2022/03/22 09:38:32;;;;;;;10.70;3.20;;;23.30;99.90;;;;;;5009646;28;20631;-79
2022/03/22 09:41:03;;;;;;;9.70;2.70;;;23.30;99.90;;;;;;5008372;28;20289;-78
2022/03/22 09:43:34;;;;;;;8.43;2.35;;;23.30;99.90;;;;;;5007826;28;20191;-78
2022/03/22 09:46:09;;;;;;;11.10;2.97;;;23.20;99.90;;;;;;5013871;28;20313;-77
2022/03/22 09:48:42;;;;;;;7.13;2.30;;;23.20;99.90;;;;;;5015422;28;20190;-80
2022/03/22 09:54:00;;;;;;;8.60;2.67;;;23.20;99.90;;;;;;5010975;28;20194;-80
2022/03/22 09:56:32;;;;;;;11.18;2.90;;;23.20;99.90;;;;;;5009382;28;20210;-80
2022/03/22 09:59:05;;;;;;;9.55;2.65;;;23.20;99.90;;;;;;5014841;28;20182;-80
2022/03/22 10:01:40;;;;;;;9.18;2.53;;;23.20;99.90;;;;;;5007503;28;20244;-81
2022/03/22 10:04:13;;;;;;;6.85;2.72;;;23.20;99.90;;;;;;5013823;28;20202;-80
2022/03/22 10:06:54;;;;;;;9.75;2.92;;;23.10;99.90;;;;;;5010160;28;20202;-81
2022/03/22 10:09:31;;;;;;;11.55;2.35;;;23.10;99.90;;;;;;5015305;28;20650;-80
2022/03/22 10:12:03;;;;;;;11.43;3.00;;;23.10;99.90;;;;;;5011435;28;20214;-80
2022/03/22 10:14:38;;;;;;;8.30;2.88;;;23.00;99.90;;;;;;5011471;28;20621;-81
2022/03/22 10:17:15;;;;;;;8.45;2.58;;;23.10;99.90;;;;;;5006285;28;20558;-80
2022/03/22 10:19:50;;;;;;;8.07;2.65;;;23.00;99.90;;;;;;5017772;28;20190;-80
2022/03/22 10:22:26;;;;;;;9.15;2.95;;;23.00;99.90;;;;;;5010981;28;20209;-80
2022/03/22 10:24:59;;;;;;;8.65;2.50;;;22.90;99.90;;;;;;5013148;28;20643;-81
2022/03/22 10:27:31;;;;;;;4.82;2.42;;;22.90;99.90;;;;;;5009282;28;20662;-81
2022/03/22 10:30:03;;;;;;;7.75;2.78;;;22.90;99.90;;;;;;5011743;28;20198;-81
2022/03/22 10:32:39;;;;;;;9.70;2.40;;;22.90;99.90;;;;;;5007189;28;20206;-81
2022/03/22 10:35:17;;;;;;;9.35;2.88;;;22.90;99.90;;;;;;5012341;28;20183;-81
2022/03/22 10:37:49;;;;;;;11.60;2.53;;;22.80;99.90;;;;;;5011435;28;20187;-80
2022/03/22 10:40:28;;;;;;;9.20;2.63;;;22.90;99.90;;;;;;5011249;28;20187;-81
2022/03/22 10:43:00;;;;;;;7.78;2.55;;;22.80;99.90;;;;;;5011806;28;20197;-81
2022/03/22 10:45:33;;;;;;;9.27;2.40;;;22.80;99.90;;;;;;5007112;28;20229;-81
2022/03/22 10:48:08;;;;;;;9.93;2.35;;;22.80;99.90;;;;;;5006070;28;20305;-80
2022/03/22 10:50:41;;;;;;;5.25;2.47;;;22.80;99.90;;;;;;5008031;28;20212;-81
2022/03/22 10:53:18;;;;;;;8.48;2.60;;;22.80;99.90;;;;;;5007002;28;20253;-81
2022/03/22 10:55:50;;;;;;;10.70;2.60;;;22.80;99.90;;;;;;5014181;28;21336;-80
2022/03/22 10:58:25;;;;;;;8.43;2.40;;;22.70;99.90;;;;;;5014733;28;20187;-81
2022/03/22 11:00:59;;;;;;;8.52;2.78;;;22.70;99.90;;;;;;5009217;28;20190;-80
2022/03/22 11:03:35;;;;;;;7.75;2.53;;;22.70;99.90;;;;;;5011826;28;20605;-80
2022/03/22 11:06:06;;;;;;;6.10;2.45;;;22.70;99.90;;;;;;5015215;28;20631;-81
2022/03/22 11:08:40;;;;;;;15.95;2.90;;;22.70;99.90;;;;;;5012561;28;20238;-80
2022/03/22 11:11:11;;;;;;;8.88;2.40;;;22.70;99.90;;;;;;5017081;28;20272;-79
2022/03/22 11:13:43;;;;;;;9.70;2.65;;;22.70;99.90;;;;;;5019514;28;20191;-81
2022/03/22 11:16:13;;;;;;;9.52;2.70;;;22.70;99.90;;;;;;5017257;28;20211;-80
2022/03/22 11:18:46;;;;;;;11.05;3.30;;;22.70;99.90;;;;;;5015618;28;20199;-80
2022/03/22 11:21:21;;;;;;;9.95;2.65;;;22.70;99.90;;;;;;5015049;28;20187;-81
2022/03/22 11:23:52;;;;;;;8.20;2.65;;;22.60;99.90;;;;;;5010094;28;20709;-81
2022/03/22 11:26:23;;;;;;;15.60;2.83;;;22.70;99.90;;;;;;5013128;28;20187;-80
2022/03/22 11:28:54;;;;;;;6.18;2.28;;;22.60;99.90;;;;;;5015800;28;20222;-81
2022/03/22 11:31:29;;;;;;;6.97;2.38;;;22.60;99.90;;;;;;5014202;28;20264;-81
2022/03/22 11:34:11;;;;;;;7.93;2.50;;;22.60;99.90;;;;;;5015500;28;20532;-81
2022/03/22 11:36:45;;;;;;;11.85;2.95;;;22.60;99.90;;;;;;5020955;28;20227;-82
2022/03/22 11:39:20;;;;;;;9.55;2.78;;;22.60;99.90;;;;;;5019369;28;20191;-81
2022/03/22 11:42:16;;;;;;;5.60;2.10;;;22.50;99.90;;;;;;5014509;28;20218;-81
2022/03/22 11:44:59;;;;;;;8.20;2.50;;;22.50;99.90;;;;;;5014687;28;20676;-81
2022/03/22 11:47:41;;;;;;;5.50;2.47;;;22.50;99.90;;;;;;5013985;28;20684;-78
2022/03/22 11:50:17;;;;;;;6.90;2.67;;;22.50;99.90;;;;;;5010607;28;20195;-80
2022/03/22 11:52:50;;;;;;;9.15;2.80;;;22.50;99.90;;;;;;5018564;28;20194;-80
2022/03/22 11:55:22;;;;;;;7.93;2.70;;;22.40;99.90;;;;;;5016280;28;20209;-80
2022/03/22 11:57:55;;;;;;;8.80;2.92;;;22.40;99.90;;;;;;5015117;28;20708;-80
2022/03/22 12:00:42;;;;;;;6.80;2.65;;;22.40;99.90;;;;;;5014305;28;20269;-80
2022/03/22 12:03:13;;;;;;;8.43;2.80;;;22.40;99.90;;;;;;5013186;28;20194;-80
2022/03/22 12:05:46;;;;;;;11.23;2.60;;;22.40;99.90;;;;;;5013538;28;20187;-79
2022/03/22 12:08:18;;;;;;;7.10;2.70;;;22.30;99.90;;;;;;5016193;28;20188;-78
2022/03/22 12:10:53;;;;;;;5.55;2.30;;;22.40;99.90;;;;;;5018496;28;20202;-78
2022/03/22 12:13:25;;;;;;;6.45;2.45;;;22.30;99.90;;;;;;5015922;28;20191;-78
2022/03/22 12:16:00;;;;;;;11.02;2.75;;;22.30;99.90;;;;;;5017083;28;20195;-79
2022/03/22 12:18:34;;;;;;;6.13;2.65;;;22.30;99.90;;;;;;5011006;28;20249;-78
2022/03/22 12:21:06;;;;;;;6.03;2.50;;;22.30;99.90;;;;;;5014105;28;20198;-80
2022/03/22 12:23:37;;;;;;;6.82;2.90;;;22.30;99.90;;;;;;5015884;28;20642;-77
2022/03/22 12:26:10;;;;;;;7.68;3.00;;;22.30;99.90;;;;;;5017047;28;20229;-78
2022/03/22 12:28:50;;;;;;;5.53;2.60;;;22.30;99.90;;;;;;5011799;28;20720;-79
2022/03/22 12:31:25;;;;;;;10.25;2.90;;;22.20;99.90;;;;;;5014148;28;20223;-77
2022/03/22 12:34:08;;;;;;;7.65;2.60;;;22.20;99.90;;;;;;5017021;28;20191;-76
2022/03/22 12:36:42;;;;;;;5.68;2.50;;;22.10;99.90;;;;;;5010044;28;20211;-78
2022/03/22 12:39:18;;;;;;;5.70;2.85;;;22.10;99.90;;;;;;5013456;28;20640;-77
2022/03/22 12:41:49;;;;;;;6.78;2.75;;;22.00;99.90;;;;;;5012994;28;20218;-76
2022/03/22 12:44:21;;;;;;;6.63;2.80;;;22.00;99.90;;;;;;5014364;28;20245;-79
2022/03/22 12:46:53;;;;;;;9.68;3.00;;;22.00;99.90;;;;;;5013035;28;20233;-79
2022/03/22 12:49:25;;;;;;;6.18;2.63;;;21.90;99.90;;;;;;5012711;28;20279;-76
2022/03/22 12:51:59;;;;;;;7.20;2.92;;;21.90;99.90;;;;;;5014428;28;20226;-77
2022/03/22 12:54:37;;;;;;;7.43;2.42;;;21.90;99.90;;;;;;5016516;28;20183;-77
2022/03/22 12:57:12;;;;;;;7.07;2.65;;;21.80;99.90;;;;;;5015527;28;20573;-77
2022/03/22 12:59:44;;;;;;;8.55;2.88;;;21.80;99.90;;;;;;5006447;28;20318;-77
2022/03/22 13:02:15;;;;;;;7.97;3.10;;;21.80;99.90;;;;;;5006343;28;20192;-76
2022/03/22 13:04:48;;;;;;;5.43;2.70;;;21.80;99.90;;;;;;5012521;28;20202;-77
2022/03/22 13:07:25;;;;;;;7.40;2.55;;;21.70;99.90;;;;;;5011449;28;20277;-79
2022/03/22 13:12:45;;;;;;;12.10;3.30;;;21.70;99.90;;;;;;5009324;28;20246;-77
2022/03/22 13:15:15;;;;;;;7.53;2.85;;;21.70;99.90;;;;;;5012039;28;20198;-77
2022/03/22 13:17:48;;;;;;;8.02;2.90;;;21.60;99.90;;;;;;5013227;28;20215;-76
2022/03/22 13:20:21;;;;;;;8.32;3.20;;;21.60;99.90;;;;;;5016462;28;20198;-77
2022/03/22 13:22:55;;;;;;;10.20;2.97;;;21.60;99.90;;;;;;5012540;28;20203;-77
2022/03/22 13:25:30;;;;;;;6.50;2.70;;;21.60;99.90;;;;;;5007904;28;20199;-77
2022/03/22 13:28:03;;;;;;;5.15;2.53;;;21.60;99.90;;;;;;5012607;28;20191;-78
2022/03/22 13:30:35;;;;;;;6.68;2.58;;;21.50;99.90;;;;;;5011662;28;20639;-77
2022/03/22 13:33:13;;;;;;;6.65;3.20;;;21.50;99.90;;;;;;5009600;28;20642;-77
2022/03/22 13:35:57;;;;;;;5.57;2.90;;;21.50;99.90;;;;;;5012599;28;20191;-78
2022/03/22 13:38:30;;;;;;;6.75;2.72;;;21.50;99.90;;;;;;5009308;28;20223;-78
2022/03/22 13:41:03;;;;;;;6.20;2.83;;;21.50;99.90;;;;;;5009934;28;20215;-77
2022/03/22 13:43:44;;;;;;;6.53;3.10;;;21.50;99.90;;;;;;5013047;28;20218;-78
2022/03/22 13:46:15;;;;;;;5.40;2.95;;;21.50;99.90;;;;;;5012090;28;20269;-76
2022/03/22 13:48:51;;;;;;;8.95;3.05;;;21.40;99.90;;;;;;5011343;28;20199;-77